ADDS METAR Data INFO
IDs: Format: Raw Decoded Include TAF

Data at: 2052 UTC 24 Jun 2018

KOCH 241956Z AUTO 19013G19KT 160V230 10SM 35/23 A2990 RMK AO2 SLP125 T03500233 $
KOCH 241856Z AUTO 18013G16KT 10SM 33/23 A2991 RMK AO2 SLP129 T03330233 $
KOCH 241756Z AUTO 21008KT 10SM 33/23 A2994 RMK AO2 SLP139 T03280228 10333 20250 50003 $
KOCH 241656Z AUTO 21007KT 190V250 10SM 32/24 A2995 RMK AO2 SLP143 T03170239 $
KOCH 241556Z AUTO 20011KT 10SM 31/24 A2995 RMK AO2 SLP143 T03110239 $
KOCH 241456Z AUTO 21015G18KT 10SM 29/24 A2993 RMK AO2 SLP136 T02940239 51017 $
KOCH 241356Z AUTO 19009G17KT 10SM 28/24 A2992 RMK AO2 SLP131 T02780244 $
KOCH 241256Z AUTO 17010KT 10SM 27/24 A2990 RMK AO2 SLP126 T02670239 $
KOCH 241156Z AUTO 15010KT 10SM 25/24 A2989 RMK AO2 SLP119 T02500239 10261 20250 57005 TSNO $
KOCH 241056Z AUTO 16007KT 10SM 26/24 A2989 RMK AO2 SLP122 T02560239 $
KOCH 240956Z AUTO 20007KT 10SM 26/24 A2989 RMK AO2 SLP122 T02560239 $
KOCH 240856Z AUTO 19009KT 10SM 26/24 A2990 RMK AO2 SLP124 T02560239 58001 $
KOCH 240756Z AUTO 18008KT 10SM 26/24 A2991 RMK AO2 SLP127 T02560239 $
KOCH 240656Z AUTO 18009KT 10SM 26/24 A2992 RMK AO2 SLP131 T02560239 $
KOCH 240556Z AUTO 17010KT 10SM 26/24 A2990 RMK AO2 SLP125 T02610239 10333 20261 403500244 53021 $
KOCH 240456Z AUTO 18011KT 10SM 27/24 A2988 RMK AO2 SLP118 T02670239 $
KOCH 240356Z AUTO 17011KT 10SM 27/24 A2985 RMK AO2 SLP108 T02720244 $
KOCH 240256Z AUTO 16008KT 10SM 28/24 A2984 RMK AO2 SLP104 T02830239 53012 $
KOCH 240156Z AUTO 16011G17KT 10SM 29/24 A2982 RMK AO2 SLP098 T02940239 $
KOCH 240056Z AUTO 16008KT 10SM 31/24 A2981 RMK AO2 SLP094 T03110244 TSNO $
KOCH 232356Z AUTO 16011G16KT 10SM 33/24 A2980 RMK AO2 SLP091 T03330239 10350 20317 55010 $
KOCH 232256Z AUTO 17012KT 10SM 34/23 A2980 RMK AO2 SLP091 T03390228 $
KOCH 232156Z AUTO 17009KT 10SM 34/22 A2982 RMK AO2 SLP097 T03390222 $
KOCH 232056Z AUTO 19010KT 10SM 35/22 A2983 RMK AO2 SLP101 T03500222 56027 $
KOCH 231956Z AUTO 20010G14KT 10SM 34/22 A2986 RMK AO2 SLP110 T03390222 $
KOCH 231856Z AUTO 20010KT 10SM 33/22 A2988 RMK AO2 SLP117 T03330217 $
KOCH 231756Z AUTO 14008KT 10SM 32/22 A2991 RMK AO2 SLP128 T03170217 10322 20244 58003 $
KOCH 231656Z AUTO 18005KT 10SM 31/22 A2993 RMK AO2 SLP135 T03110217 $
KOCH 231556Z AUTO 25005KT 10SM 29/22 A2996 RMK AO2 SLP144 T02940222 $
KOCH 231456Z AUTO 19009KT 10SM 28/22 A2992 RMK AO2 SLP133 T02780222 53008 $
KOCH 231356Z AUTO 22009KT 10SM 27/23 A2990 RMK AO2 SLP127 T02670228 TSNO $
KOCH 231256Z AUTO 19009KT 10SM 26/23 A2989 RMK AO2 SLP121 T02560233 $
KOCH 231156Z AUTO 17005KT 10SM 24/23 A2990 RMK AO2 SLP124 T02440233 10272 20244 51019 $
KOCH 231056Z AUTO 17005KT 10SM 24/23 A2989 RMK AO2 SLP121 T02440233 $
KOCH 230956Z AUTO 18007KT 10SM 25/24 A2986 RMK AO2 SLP111 T02500239 $
KOCH 230856Z AUTO 18009KT 10SM 26/24 A2984 RMK AO2 SLP105 T02610244 53002 $